Latest Coastal Weather Observations for East Sale

IDV60701

Issued at 9:15 pm EST Saturday 26 July 2014 (issued every 10 minutes, with the page automatically refreshed every 10 minutes)

About coastal observations | Map of coastal stations | Coastal observations for VIC | Marine services | Other Formats
Station Details ID: 085072 Name: EAST SALE AIRPORT Lat: -38.12 Lon: 147.13 Height: 4.6 m
Data from the previous 72 hours. | See also: Recent months at East Sale
Date/Time
EST
Temp

°C
Wind Pressure Rain
since 9am
mm
Weather Cloud Vis
km
Sea
Height
m
Swell
Dir
 
Speed
knots
Gust
knots
hPa Trend Height
m
Period
s
Dir
26/09:00pm 11.5 W 12 15 1023.8 - 0.0 - Cloudy 10 - - - -
26/08:30pm 10.9 W 11 14 1023.5 - 0.0 - Partly cloudy 10 - - - -
26/08:00pm 11.0 W 11 14 1023.3 - 0.0 - - 10 - - - -
26/07:30pm 11.1 W 11 13 1023.2 - 0.0 - - 10 - - - -
26/07:00pm 11.5 W 10 13 1023.0 - 0.0 - Partly cloudy 10 - - - -
26/06:30pm 11.7 WNW 11 14 1022.8 - 0.0 - Partly cloudy 10 - - - -
26/06:00pm 11.9 W 12 16 1022.4 - 0.0 - Cloudy 10 - - - -
26/05:30pm 12.3 W 13 17 1022.2 - 0.0 - Partly cloudy 10 - - - -
26/05:00pm 13.1 W 15 20 1022.0 - 0.0 - Partly cloudy 10 - - - -
26/04:30pm 13.6 W 14 19 1021.6 - 0.0 - Partly cloudy 10 - - - -
26/04:00pm 13.7 W 13 16 1021.3 - 0.0 - Partly cloudy 10 - - - -
26/03:30pm 14.1 W 14 20 1021.3 - 0.0 - Partly cloudy 10 - - - -
26/03:00pm 14.1 W 11 15 1021.2 R 0.0 Fine Mostly cloudy 30 - - - -
26/02:30pm 15.1 W 14 18 1021.1 - 0.0 - Partly cloudy 10 - - - -
26/02:00pm 14.6 W 14 19 1020.9 - 0.0 - Partly cloudy 10 - - - -
26/01:30pm 14.8 W 14 21 1020.9 - 0.0 - Partly cloudy 10 - - - -
26/01:00pm 14.5 W 13 17 1021.2 - 0.0 - Partly cloudy 10 - - - -
26/12:30pm 14.6 W 11 13 1021.6 - 0.0 - Partly cloudy 10 - - - -
26/12:00pm 12.9 WNW 5 7 1022.1 - 0.0 - Cloudy 10 - - - -
26/11:30am 12.2 NNW 4 6 1022.5 - 0.0 - Partly cloudy 10 - - - -
26/11:00am 11.1 WNW 3 4 1022.7 - 0.0 - Cloudy 10 - - - -
26/10:30am 10.2 NNW 2 3 1022.8 - 0.0 - Cloudy 10 - - - -
26/10:00am 9.5 NNW 4 7 1022.9 - 0.0 - Partly cloudy 10 - - - -
26/09:30am 9.2 W 2 7 1022.8 - 0.0 - Cloudy 10 - - - -
26/09:00am 8.6 W 4 4 1022.5 R 0.0 Rain Mostly cloudy 30 - - - -
26/08:30am 8.2 WNW 4 5 1022.1 - 0.0 - Partly cloudy 10 - - - -
26/08:00am 7.1 NNW 4 6 1021.9 - 0.0 - Partly cloudy 10 - - - -
26/07:30am 5.2 NW 3 4 1021.7 - 0.0 - - 10 - - - -
26/07:00am 6.9 CALM 0 0 1021.4 - 0.0 - Partly cloudy 10 - - - -
26/06:30am 7.5 NW 5 5 1021.1 - 0.0 - Partly cloudy 10 - - - -
26/06:00am 7.1 CALM 0 0 1020.9 - 0.0 - Cloudy 10 - - - -
26/05:30am 6.9 N 3 5 1020.7 - 0.0 - Cloudy 10 - - - -
26/05:00am 6.8 CALM 0 0 1020.6 - 0.0 - Partly cloudy 10 - - - -
26/04:30am 7.2 NNW 3 4 1020.5 - 0.0 - Partly cloudy 10 - - - -
26/04:00am 7.0 N 2 3 1020.3 - 0.0 - Partly cloudy 10 - - - -
26/03:30am 7.3 NNE 3 4 1020.3 - 0.0 - Partly cloudy 10 - - - -
26/03:00am 7.4 CALM 0 0 1020.2 - 0.0 - Cloudy 10 - - - -
26/02:30am 9.1 CALM 0 0 1020.2 - 0.0 - Partly cloudy 10 - - - -
26/02:00am 9.3 NNW 4 6 1020.3 - 0.0 - Partly cloudy 10 - - - -
26/01:30am 9.9 SE 3 9 1020.1 - 0.0 - Partly cloudy 10 - - - -
26/01:00am 9.3 NNE 4 6 1020.0 - 0.0 - Partly cloudy 10 - - - -
26/12:30am 9.9 N 1 3 1019.9 - 0.0 - Cloudy 10 - - - -
26/12:00am 10.5 N 3 4 1020.1 - 0.0 - Cloudy 10 - - - -
 
Date/Time
EST
Temp

°C
Wind Pressure Rain
since 9am
mm
Weather Cloud Vis
km
Sea
Height
m
Swell
Dir
 
Speed
knots
Gust
knots
hPa Trend Height
m
Period
s
Dir
25/11:30pm 9.7 N 3 4 1020.2 - 0.0 - Cloudy 10 - - - -
25/11:00pm 10.4 WSW 5 6 1020.2 - 0.0 - Partly cloudy 10 - - - -
25/10:30pm 9.3 W 4 5 1020.2 - 0.0 - Partly cloudy 10 - - - -
25/10:00pm 8.3 NNW 6 7 1019.9 - 0.0 - Partly cloudy 10 - - - -
25/09:30pm 10.0 N 3 5 1020.0 - 0.0 - Cloudy 10 - - - -
25/09:00pm 10.6 N 5 7 1019.8 - 0.0 - Mostly cloudy 10 - - - -
25/08:30pm 11.0 N 5 7 1019.6 - 0.0 - Cloudy 10 - - - -
25/08:00pm 12.3 N 7 8 1019.3 - 0.0 - Cloudy 10 - - - -
25/07:30pm 11.8 NNE 6 8 1019.0 - 0.0 - Partly cloudy 10 - - - -
25/07:00pm 12.3 N 5 7 1018.7 - 0.0 - Partly cloudy 10 - - - -
25/06:30pm 12.7 NW 9 12 1018.3 - 0.0 - Partly cloudy 10 - - - -
25/06:00pm 12.3 NW 9 12 1018.0 - 0.0 - Mostly clear 10 - - - -
25/05:30pm 13.3 NW 10 13 1017.6 - 0.0 - Partly cloudy 10 - - - -
25/05:00pm 15.0 NW 10 13 1017.5 - 0.0 - Cloudy 10 - - - -
25/04:30pm 15.9 NW 11 15 1017.4 - 0.0 - Cloudy 10 - - - -
25/04:00pm 15.0 NW 11 16 1017.1 - 0.0 - Partly cloudy 10 - - - -
25/03:30pm 16.2 NNW 12 15 1016.9 - 0.0 - Partly cloudy 10 - - - -
25/03:00pm 16.9 NNW 11 17 1016.8 R 0.0 Distant precip. Partly cloudy 25 - - - -
25/02:30pm 15.9 NW 11 14 1016.8 - 0.0 - Partly cloudy 10 - - - -
25/02:00pm 16.1 NNW 8 10 1016.7 - 0.0 - Partly cloudy 10 - - - -
25/01:30pm 18.0 NW 4 7 1016.6 - 0.0 - - 10 - - - -
25/01:00pm 16.6 NE 6 8 1016.7 - 0.0 - - 10 - - - -
25/12:30pm 15.7 N 4 5 1017.1 - 0.0 - - 10 - - - -
25/12:00pm 14.9 ENE 1 4 1017.6 - 0.0 - - 10 - - - -
25/11:30am 13.3 S 2 4 1018.0 - 0.0 - - 10 - - - -
25/11:00am 10.2 ENE 3 5 1018.2 - 0.0 - Partly cloudy 10 - - - -
25/10:30am 7.8 W 1 4 1018.3 - 0.0 - Cloudy 10 - - - -
25/10:00am 7.2 NW 6 8 1018.2 - 0.0 - Cloudy 10 - - - -
25/09:30am 6.8 NNW 4 6 1017.9 - 0.0 - Cloudy 10 - - - -
25/09:00am 5.9 W 3 4 1017.5 R 0.2 Fine Mostly cloudy 15 - - - -
25/08:30am 5.2 WNW 5 6 1017.4 - 0.2 - Cloudy 10 - - - -
25/08:00am 4.2 WNW 3 6 1017.2 - 0.2 - Cloudy 10 - - - -
25/07:30am 2.4 W 5 6 1016.9 - 0.2 - Partly cloudy 10 - - - -
25/07:00am 2.1 NW 4 5 1016.5 - 0.2 - - 10 - - - -
25/06:49am 2.4 WNW 3 5 1016.4 - 0.2 - Partly cloudy 7 - - - -
25/06:48am 2.5 NW 4 5 1016.4 - 0.2 - Partly cloudy 8 - - - -
25/06:30am 2.7 WNW 6 7 1016.4 - 0.0 - Partly cloudy 2 - - - -
25/06:19am 2.9 WNW 4 6 1016.2 - 0.0 - Partly cloudy 6 - - - -
25/06:16am 3.0 WNW 4 5 1016.1 - 0.0 - Partly cloudy 10 - - - -
25/06:14am 3.1 W 4 5 1016.1 - 0.0 - Partly cloudy 10 - - - -
25/06:12am 3.1 W 4 5 1016.1 - 0.0 - Partly cloudy 10 - - - -
25/06:00am 3.3 WNW 6 7 1016.0 - 0.0 - Cloudy 2 - - - -
25/05:30am 3.0 NNW 5 6 1015.6 - 0.0 - Partly cloudy 0.3 - - - -
25/05:07am 2.5 NW 6 6 1015.6 - 0.0 - Partly cloudy 0.5 - - - -
25/05:00am 3.3 NW 6 8 1015.5 - 0.0 - Partly cloudy 0.5 - - - -
25/04:30am 3.8 WNW 4 6 1015.5 - 0.0 - Partly cloudy 0.3 - - - -
25/04:00am 4.1 W 6 8 1015.3 - 0.0 - - 5 - - - -
25/03:30am 4.1 SW 2 5 1015.2 - 0.0 - Cloudy 6 - - - -
25/03:26am 4.4 SW 4 6 1015.2 - 0.0 - Cloudy 6 - - - -
25/03:00am 4.7 WNW 3 4 1015.2 - 0.0 - Cloudy 9 - - - -
25/02:30am 4.2 WNW 3 6 1015.5 - 0.0 - Cloudy 4 - - - -
25/02:00am 3.6 E 1 3 1015.1 - 0.0 - Partly cloudy 0.3 - - - -
25/01:30am 4.6 SW 4 4 1015.3 - 0.0 - Partly cloudy 0.3 - - - -
25/01:27am 4.4 SSW 3 4 1015.3 - 0.0 - Partly cloudy 0.3 - - - -
25/01:00am 5.2 WNW 4 6 1015.5 - 0.0 - Partly cloudy 0.4 - - - -
25/12:55am 5.0 WNW 6 8 1015.7 - 0.0 - Partly cloudy 0.5 - - - -
25/12:32am 5.3 NNW 3 6 1015.8 - 0.0 - Cloudy 6 - - - -
25/12:30am 5.3 NNW 3 6 1015.8 - 0.0 - Cloudy 7 - - - -
25/12:00am 5.7 NNE 3 4 1015.6 - 0.0 - Cloudy 9 - - - -
 
Date/Time
EST
Temp

°C
Wind Pressure Rain
since 9am
mm
Weather Cloud Vis
km
Sea
Height
m
Swell
Dir
 
Speed
knots
Gust
knots
hPa Trend Height
m
Period
s
Dir
24/11:56pm 5.9 N 3 4 1015.6 - 0.0 - Cloudy 9 - - - -
24/11:39pm 6.3 NNE 3 5 1015.9 - 0.0 - Partly cloudy 6 - - - -
24/11:30pm 5.7 ESE 3 4 1016.1 - 0.0 - Partly cloudy 10 - - - -
24/11:00pm 6.6 SE 5 5 1016.1 - 0.0 - Partly cloudy 10 - - - -
24/10:38pm 5.9 S 4 5 1016.3 - 0.0 - Partly cloudy 10 - - - -
24/10:30pm 6.3 SSW 2 4 1016.4 - 0.0 - Partly cloudy 10 - - - -
24/10:15pm 6.5 W 2 4 1016.7 - 0.0 - Partly cloudy 5 - - - -
24/10:00pm 7.3 NNW 2 3 1016.6 - 0.0 - Cloudy 10 - - - -
24/09:30pm 7.9 E 2 3 1016.3 - 0.0 - Cloudy 10 - - - -
24/09:00pm 8.1 ESE 3 4 1016.3 - 0.0 - Cloudy 10 - - - -
24/08:30pm 7.9 SSE 3 5 1016.5 - 0.0 - Cloudy 10 - - - -
24/08:00pm 8.0 SSE 3 5 1016.2 - 0.0 - Partly cloudy 10 - - - -
24/07:30pm 7.8 E 5 6 1016.2 - 0.0 - Partly cloudy 10 - - - -
24/07:00pm 7.5 NNE 1 4 1016.3 - 0.0 - Partly cloudy 10 - - - -
24/06:30pm 7.5 NE 4 5 1016.3 - 0.0 - Cloudy 10 - - - -
24/06:00pm 7.9 ENE 4 5 1016.2 - 0.0 - Mostly cloudy 10 - - - -
24/05:30pm 9.1 NE 4 5 1016.1 - 0.0 - Partly cloudy 10 - - - -
24/05:00pm 9.6 ENE 4 6 1016.2 - 0.0 - Partly cloudy 10 - - - -
24/04:30pm 9.8 E 4 7 1016.0 - 0.0 - Partly cloudy 10 - - - -
24/04:00pm 9.9 SW 1 5 1015.8 - 0.0 - Partly cloudy 10 - - - -
24/03:30pm 9.8 S 3 4 1016.0 - 0.0 Rain Mostly cloudy 10 - - - -
24/03:00pm 9.9 NNE 4 5 1016.1 F 0.0 Rain Mostly cloudy 15 - - - -
24/02:30pm 10.0 NW 5 6 1015.9 - 0.0 - Cloudy 10 - - - -
24/02:00pm 10.1 WNW 5 8 1016.2 - 0.0 - Partly cloudy 10 - - - -
24/01:30pm 10.1 NW 5 8 1016.4 - 0.0 - Partly cloudy 10 - - - -
24/01:00pm 9.2 WNW 4 5 1016.5 - 0.0 - Cloudy 10 - - - -
24/12:30pm 8.8 NW 5 7 1016.9 - 0.0 - Partly cloudy 10 - - - -
24/12:00pm 6.5 S 4 5 1017.4 - 0.0 - Mostly cloudy 10 - - - -
24/11:30am 5.4 WNW 1 4 1018.0 - 0.0 - Cloudy 10 - - - -
24/11:00am 4.9 WNW 6 7 1018.6 - 0.0 - Cloudy 10 - - - -
24/10:29am 3.8 SSW 4 5 1018.7 - 0.0 Fog patches Mostly clear 10 - - - -
24/10:14am 3.1 WSW 3 4 1019.0 - 0.0 - Partly cloudy 8 - - - -
24/10:00am 2.8 W 5 7 1019.1 - 0.0 Mist Mostly cloudy 3 - - - -
24/09:30am 1.8 W 5 6 1018.8 - 0.0 Fog Mostly cloudy 0.8 - - - -
24/09:00am 0.9 W 6 7 1018.8 F 0.2 Fog Fog 0.5 - - - -
24/08:30am 0.4 NW 6 8 1018.8 - 0.0 Fog Cloudy 0.2 - - - -
24/08:00am -0.3 NW 6 7 1018.9 - 0.0 Fog Cloudy 0.1 - - - -
24/07:30am -0.2 NNW 5 6 1018.8 - 0.0 Mist Mostly clear 5 - - - -
24/07:08am 0.1 N 4 6 1018.9 - 0.0 Fog Partly cloudy 0.8 - - - -
24/07:00am 0.3 NW 4 5 1018.8 - 0.0 Fog Partly cloudy 0.8 - - - -
24/06:48am 0.5 W 2 4 1018.7 - 0.0 - Partly cloudy 5 - - - -
24/06:40am 0.9 W 4 6 1018.7 - 0.0 - Partly cloudy 9 - - - -
24/06:30am 1.0 W 4 5 1018.6 - 0.0 - - 10 - - - -
24/06:00am 1.2 W 5 6 1018.4 - 0.0 - Mostly clear 10 - - - -
24/05:58am 1.1 W 5 6 1018.4 - 0.0 - Partly cloudy 10 - - - -
24/05:30am 0.9 CALM 0 0 1018.1 - 0.0 - Partly cloudy 0.7 - - - -
24/05:00am 1.4 CALM 0 0 1018.0 - 0.0 - Partly cloudy 0.6 - - - -
24/04:31am 1.9 N 3 3 1018.1 - 0.0 - Partly cloudy 1 - - - -
24/04:30am 2.0 N 3 3 1018.1 - 0.0 - Partly cloudy 1 - - - -
24/04:23am 2.2 N 3 4 1018.0 - 0.0 - Partly cloudy 5 - - - -
24/04:21am 2.2 N 3 4 1018.0 - 0.0 - Partly cloudy 8 - - - -
24/04:00am 3.0 CALM 0 0 1018.2 - 0.0 - Cloudy 0.1 - - - -
24/03:30am 2.8 NNW 1 4 1018.3 - 0.0 - Cloudy 0.1 - - - -
24/03:00am 2.7 NW 3 5 1018.6 - 0.0 - Cloudy 0.1 - - - -
24/02:30am 2.6 NNW 4 5 1018.6 - 0.0 - Cloudy 0.1 - - - -
24/02:00am 2.2 WNW 5 6 1018.7 - 0.0 - Cloudy 0.2 - - - -
24/01:30am 1.8 NW 4 4 1018.8 - 0.0 - Cloudy 0.1 - - - -
24/01:00am 1.7 NW 6 7 1018.9 - 0.0 - Cloudy 0.2 - - - -
24/12:30am 2.7 NNW 5 6 1019.1 - 0.0 - Cloudy 0.4 - - - -
24/12:00am 3.5 NW 5 6 1019.5 - 0.0 - Cloudy 0.2 - - - -
 
Date/Time
EST
Temp

°C
Wind Pressure Rain
since 9am
mm
Weather Cloud Vis
km
Sea
Height
m
Swell
Dir
 
Speed
knots
Gust
knots
hPa Trend Height
m
Period
s
Dir
23/11:30pm 3.7 NW 5 7 1020.1 - 0.0 - Cloudy 0.1 - - - -
23/11:00pm 3.0 NNW 5 7 1020.4 - 0.0 - Cloudy 0.1 - - - -
23/10:36pm 3.0 CALM 0 3 1020.7 - 0.0 - Partly cloudy 5 - - - -
23/10:30pm 3.5 NW 1 3 1020.8 - 0.0 - Partly cloudy 8 - - - -
23/10:03pm 3.8 SE 2 3 1021.2 - 0.0 - Partly cloudy 0.2 - - - -
23/10:00pm 4.2 SE 2 3 1021.2 - 0.0 - Partly cloudy 0.1 - - - -
23/09:50pm 4.0 SE 3 3 1021.2 - 0.0 - Partly cloudy 3 - - - -
23/09:30pm 3.8 SSE 3 4 1021.3 - 0.0 - Partly cloudy 10 - - - -

Other Formats:

Comma delimited format used in spreadsheet applications
http://www.bom.gov.au/fwo/IDV60701/IDV60701.94907.axf

JavaScript Object Notation format (JSON) in row-major order
http://www.bom.gov.au/fwo/IDV60701/IDV60701.94907.json